Lake Havasu City, AZ

11:20 PM MST on October 25, 2014 (GMT -0700)
North Palo Verde - Hard Rock | Change Station
CLOSE
Current Station
Personal Weather Station
Location: Lake Havasu City, AZ
Elevation: 1100 ft
Nearby Weather Stations

Elev 1100 ft 34.52 °N, 114.31 °W | Updated 6 minutes ago

Clear
Clear
79.4 °F
Feels Like 79 °F
N
1.0
Wind Variable Wind from SE

Today
High -- | Low -- °F
--% Chance of Precip.
Yesterday
High -- | Low -- °F
Precip. -- in
6:51 AM 5:50 PM
Waxing Crescent, 6% visible
Pressure 29.81 in
Visibility 10.0 miles
Clouds Clear
Heat Index 79 °F
Dew Point 45 °F
Humidity 30%
Rainfall 0.00 in
Snow Depth Not available.
UV 0 out of 12
Pollen 5.20 out of 12
Air Quality Not available.
Flu Activity No Activity
METAR KEED 260556Z AUTO 24010KT 10SM CLR 27/07 A2989 RMK AO2 SLP092 T02670072 10339 20267 50002

More Conditions Fewer Conditions

Pressure 29.81 in
Visibility 10.0 miles
Clouds Clear
Heat Index 79 °F
Dew Point 45 °F
Humidity 30%
Rainfall 0.00 in
Snow Depth Not available.
UV 0 out of 12
Pollen 5.20 out of 12
Air Quality Not available.
Flu Activity No Activity
METAR KEED 260556Z AUTO 24010KT 10SM CLR 27/07 A2989 RMK AO2 SLP092 T02670072 10339 20267 50002

More Conditions Fewer Conditions

10-Day Weather Forecast

Almanac

Astronomy

Oct. 25, 2014 Rise Set
Actual Time 6:51 AM MST 5:50 PM MST
Civil Twilight 6:25 AM MST 6:16 PM MST
Nautical Twilight 5:56 AM MST 6:46 PM MST
Astronomical Twilight 5:27 AM MST 7:15 PM MST
Moon 8:31 AM MST (10/25) 7:20 PM MST (10/25)
Length of Visible Light 11h 50m
Length of Day
10h 59m
Tomorrow will be 1m 58s shorter.
Waxing Crescent, 6% of the Moon is Illuminated
Oct 26
Waxing Crescent
Oct 30
First Quarter
Nov 6
Full
Nov 14
Last Quarter
Nov 22
New

Community

WunderPhotos

Upload Photos

1,765,113 photos uploaded!

Nearby

Snow Depth

Station Depth Elevation
White Horse Lake 0 in 7180 ft
Snowslide Canyon 0 in 9730 ft
Mormon Mountain 0 in 7500 ft
Happy Jack 0 in 7630 ft
Baker Butte 0 in 7300 ft

Earthquake Activity

City Distance Mag. Time & Date
No recent earthquake activity has been reported nearby.
Minimum magnitude displayed is 2.5.

Coastal Water Temperatures

Place Temperature
No Stations Reporting

Nearby Weather Stations